Time;durP1;ratioP1;P1;durP2;ratioP2;P2;SDS_P1;SDS_P2;PMS_P1;PMS_P2;Temp;Humidity;BMP_temperature;BMP_pressure;BME280_temperature;BME280_humidity;BME280_pressure;Samples;Min_cycle;Max_cycle;Signal;HPM_P1;HPM_P2
2021/03/14 00:01:46;;;;;;;3.50;2.10;;;;;;;;;;5117803;28;20330;-65
2021/03/14 00:04:13;;;;;;;7.82;2.70;;;;;;;;;;5117617;28;20225;-65
2021/03/14 00:06:39;;;;;;;6.20;3.08;;;;;;;;;;5117276;28;20225;-64
2021/03/14 00:09:07;;;;;;;7.90;2.40;;;;;;;;;;5117201;28;20616;-68
2021/03/14 00:11:33;;;;;;;5.68;2.60;;;;;;;;;;5117140;28;20259;-65
2021/03/14 00:14:00;;;;;;;8.88;3.20;;;;;;;;;;5117031;28;20777;-65
2021/03/14 00:16:27;;;;;;;4.70;3.65;;;;;;;;;;5116829;28;20286;-65
2021/03/14 00:18:54;;;;;;;4.47;2.30;;;;;;;;;;5117284;28;20681;-65
2021/03/14 00:21:22;;;;;;;7.43;3.53;;;;;;;;;;5118248;28;20225;-65
2021/03/14 00:23:49;;;;;;;7.80;3.25;;;;;;;;;;5119337;28;20193;-65
2021/03/14 00:26:15;;;;;;;8.60;2.88;;;;;;;;;;5118449;28;20197;-65
2021/03/14 00:28:42;;;;;;;7.63;2.45;;;;;;;;;;5116659;28;20730;-65
2021/03/14 00:31:09;;;;;;;6.75;2.58;;;;;;;;;;5116821;28;20250;-64
2021/03/14 00:33:36;;;;;;;10.63;3.10;;;;;;;;;;5116747;28;20267;-64
2021/03/14 00:36:03;;;;;;;7.78;2.90;;;;;;;;;;5116435;28;20193;-64
2021/03/14 00:38:30;;;;;;;3.25;2.90;;;;;;;;;;5116892;28;20197;-64
2021/03/14 00:40:57;;;;;;;7.13;3.08;;;;;;;;;;5116239;28;20229;-65
2021/03/14 00:43:24;;;;;;;6.03;2.53;;;;;;;;;;5116522;28;20245;-65
2021/03/14 00:45:50;;;;;;;5.68;3.00;;;;;;;;;;5116499;28;20229;-64
2021/03/14 00:48:17;;;;;;;14.10;2.78;;;;;;;;;;5116790;28;20287;-65
2021/03/14 00:50:44;;;;;;;4.22;2.88;;;;;;;;;;5116359;28;20225;-64
2021/03/14 00:53:12;;;;;;;5.13;2.67;;;;;;;;;;5116286;28;20618;-65
2021/03/14 00:55:39;;;;;;;6.75;3.30;;;;;;;;;;5115917;28;20197;-64
2021/03/14 00:58:06;;;;;;;16.17;3.22;;;;;;;;;;5116143;28;20232;-65
2021/03/14 01:00:32;;;;;;;5.57;2.80;;;;;;;;;;5115845;28;20201;-65
2021/03/14 01:02:59;;;;;;;12.88;4.07;;;;;;;;;;5115767;28;20203;-65
2021/03/14 01:05:26;;;;;;;6.55;2.40;;;;;;;;;;5115782;28;20245;-66
2021/03/14 01:07:53;;;;;;;7.88;2.45;;;;;;;;;;5115669;28;20662;-65
2021/03/14 01:10:20;;;;;;;6.78;3.20;;;;;;;;;;5115644;28;20324;-65
2021/03/14 01:12:47;;;;;;;7.88;3.08;;;;;;;;;;5115496;28;20200;-64
2021/03/14 01:15:15;;;;;;;5.00;2.72;;;;;;;;;;5115715;28;20248;-64
2021/03/14 01:17:42;;;;;;;11.23;3.05;;;;;;;;;;5115911;28;20279;-64
2021/03/14 01:20:10;;;;;;;7.68;2.92;;;;;;;;;;5115765;28;20287;-65
2021/03/14 01:22:37;;;;;;;7.88;2.97;;;;;;;;;;5115737;28;20335;-65
2021/03/14 01:25:04;;;;;;;15.30;4.32;;;;;;;;;;5115398;28;20229;-65
2021/03/14 01:27:32;;;;;;;8.40;3.30;;;;;;;;;;5115808;28;20226;-65
2021/03/14 01:29:58;;;;;;;9.40;3.13;;;;;;;;;;5115347;28;20663;-64
2021/03/14 01:32:25;;;;;;;5.97;2.83;;;;;;;;;;5115581;28;20193;-64
2021/03/14 01:34:52;;;;;;;6.55;2.88;;;;;;;;;;5115461;28;20270;-65
2021/03/14 01:37:19;;;;;;;3.95;2.40;;;;;;;;;;5115748;28;20284;-64
2021/03/14 01:39:46;;;;;;;7.07;3.05;;;;;;;;;;5115397;28;20284;-65
2021/03/14 01:42:13;;;;;;;7.22;3.95;;;;;;;;;;5115434;28;20228;-64
2021/03/14 01:44:43;;;;;;;5.93;2.45;;;;;;;;;;5115023;28;20244;-65
2021/03/14 01:47:11;;;;;;;3.33;2.47;;;;;;;;;;5114907;28;20284;-65
2021/03/14 01:49:38;;;;;;;11.32;3.15;;;;;;;;;;5115249;28;20216;-65
2021/03/14 01:52:05;;;;;;;14.30;3.03;;;;;;;;;;5114886;28;20194;-64
2021/03/14 01:54:32;;;;;;;8.75;3.53;;;;;;;;;;5115078;28;20410;-64
2021/03/14 01:56:58;;;;;;;7.68;3.38;;;;;;;;;;5115102;28;20288;-65
2021/03/14 01:59:25;;;;;;;9.27;4.78;;;;;;;;;;5115799;28;20199;-64
2021/03/14 02:01:53;;;;;;;9.40;2.60;;;;;;;;;;5115195;28;20201;-65
2021/03/14 02:04:20;;;;;;;8.98;2.92;;;;;;;;;;5115662;28;20204;-64
2021/03/14 02:06:46;;;;;;;6.88;3.22;;;;;;;;;;5115048;28;20235;-64
2021/03/14 02:09:13;;;;;;;4.70;2.70;;;;;;;;;;5115145;28;20201;-65
2021/03/14 02:11:42;;;;;;;6.35;2.80;;;;;;;;;;5115069;28;20196;-64
2021/03/14 02:14:09;;;;;;;2.92;2.33;;;;;;;;;;5114893;28;20270;-62
2021/03/14 02:16:39;;;;;;;6.78;3.00;;;;;;;;;;5114829;28;20200;-65
2021/03/14 02:19:09;;;;;;;2.83;2.50;;;;;;;;;;5115560;28;20669;-64
2021/03/14 02:21:36;;;;;;;5.75;2.72;;;;;;;;;;5115143;28;20263;-65
2021/03/14 02:24:05;;;;;;;8.10;3.05;;;;;;;;;;5114623;28;20230;-64
2021/03/14 02:26:35;;;;;;;3.97;3.05;;;;;;;;;;5115258;28;20197;-64
2021/03/14 02:29:04;;;;;;;6.18;2.75;;;;;;;;;;5115539;28;20657;-65
2021/03/14 02:31:30;;;;;;;5.00;2.60;;;;;;;;;;5115590;28;20671;-64
2021/03/14 02:34:01;;;;;;;8.90;3.30;;;;;;;;;;5116274;28;20308;-64
2021/03/14 02:36:28;;;;;;;3.95;2.47;;;;;;;;;;5115709;28;20209;-65
2021/03/14 02:38:55;;;;;;;7.22;2.78;;;;;;;;;;5114513;28;20300;-64
2021/03/14 02:41:23;;;;;;;7.00;2.63;;;;;;;;;;5114407;28;20228;-66
2021/03/14 02:43:50;;;;;;;5.28;3.92;;;;;;;;;;5114645;28;20228;-65
2021/03/14 02:46:18;;;;;;;5.68;3.55;;;;;;;;;;5114839;28;20193;-65
2021/03/14 02:48:45;;;;;;;11.48;3.13;;;;;;;;;;5115909;28;20284;-65
2021/03/14 02:51:13;;;;;;;6.88;2.80;;;;;;;;;;5115153;28;20284;-65
2021/03/14 02:53:40;;;;;;;11.15;3.25;;;;;;;;;;5114805;28;20223;-65
2021/03/14 02:56:07;;;;;;;13.50;3.53;;;;;;;;;;5114854;28;20561;-65
2021/03/14 02:58:35;;;;;;;6.40;3.58;;;;;;;;;;5115630;28;20197;-65
2021/03/14 03:01:03;;;;;;;9.75;2.92;;;;;;;;;;5114896;28;20283;-65
2021/03/14 03:03:30;;;;;;;6.90;3.65;;;;;;;;;;5115399;28;20196;-65
2021/03/14 03:05:58;;;;;;;7.07;3.55;;;;;;;;;;5115099;28;20276;-65
2021/03/14 03:08:25;;;;;;;5.78;2.03;;;;;;;;;;5115529;28;20300;-64
2021/03/14 03:10:52;;;;;;;10.00;3.20;;;;;;;;;;5114696;28;20434;-64
2021/03/14 03:13:19;;;;;;;4.95;2.60;;;;;;;;;;5115195;28;20213;-65
2021/03/14 03:15:47;;;;;;;4.70;2.72;;;;;;;;;;5114707;28;20217;-65
2021/03/14 03:18:14;;;;;;;5.47;1.85;;;;;;;;;;5115081;28;20280;-64
2021/03/14 03:20:42;;;;;;;8.45;2.45;;;;;;;;;;5115655;28;20292;-65
2021/03/14 03:23:09;;;;;;;2.58;2.33;;;;;;;;;;5114423;28;20284;-64
2021/03/14 03:25:36;;;;;;;8.60;3.13;;;;;;;;;;5115181;28;20238;-65
2021/03/14 03:28:04;;;;;;;5.03;2.35;;;;;;;;;;5114455;28;20247;-65
2021/03/14 03:30:30;;;;;;;4.05;2.35;;;;;;;;;;5114266;28;20281;-64
2021/03/14 03:32:57;;;;;;;8.60;3.47;;;;;;;;;;5115043;28;20284;-64
2021/03/14 03:35:25;;;;;;;6.43;2.38;;;;;;;;;;5114655;28;20326;-65
2021/03/14 03:37:53;;;;;;;6.90;2.72;;;;;;;;;;5114420;28;20233;-65
2021/03/14 03:40:22;;;;;;;4.88;2.60;;;;;;;;;;5113825;28;20330;-65
2021/03/14 03:42:53;;;;;;;5.22;2.08;;;;;;;;;;5114670;28;20280;-66
2021/03/14 03:45:21;;;;;;;4.15;2.63;;;;;;;;;;5114442;28;20224;-66
2021/03/14 03:47:47;;;;;;;8.38;3.92;;;;;;;;;;5113807;28;20704;-65
2021/03/14 03:50:15;;;;;;;5.15;3.22;;;;;;;;;;5113706;28;20240;-65
2021/03/14 03:52:42;;;;;;;7.15;3.58;;;;;;;;;;5113374;28;20207;-65
2021/03/14 03:55:11;;;;;;;8.77;3.33;;;;;;;;;;5113807;28;20304;-65
2021/03/14 03:57:38;;;;;;;7.75;3.03;;;;;;;;;;5114705;28;20237;-66
2021/03/14 04:00:08;;;;;;;12.85;2.72;;;;;;;;;;5114531;28;20224;-65
2021/03/14 04:02:35;;;;;;;7.13;3.22;;;;;;;;;;5096912;28;20276;-64
2021/03/14 04:05:03;;;;;;;6.57;2.90;;;;;;;;;;5116119;28;20725;-64
2021/03/14 04:07:30;;;;;;;15.00;4.55;;;;;;;;;;5117672;28;20289;-65
2021/03/14 04:09:57;;;;;;;9.27;2.97;;;;;;;;;;5118484;28;20189;-65
2021/03/14 04:12:24;;;;;;;5.43;2.90;;;;;;;;;;5117535;28;20229;-65
2021/03/14 04:14:51;;;;;;;6.45;2.50;;;;;;;;;;5117738;28;20315;-65
2021/03/14 04:17:18;;;;;;;5.75;3.08;;;;;;;;;;5118304;28;20204;-65
2021/03/14 04:19:48;;;;;;;11.70;3.25;;;;;;;;;;5118235;28;20276;-65
2021/03/14 04:22:15;;;;;;;8.70;3.15;;;;;;;;;;5117161;28;20287;-64
2021/03/14 04:24:42;;;;;;;9.85;3.65;;;;;;;;;;5117532;28;20228;-64
2021/03/14 04:27:10;;;;;;;7.25;2.92;;;;;;;;;;5117640;28;20253;-65
2021/03/14 04:29:38;;;;;;;11.95;2.80;;;;;;;;;;5117391;28;20196;-65
2021/03/14 04:32:06;;;;;;;10.55;3.55;;;;;;;;;;5117388;28;20284;-65
2021/03/14 04:34:33;;;;;;;10.52;3.25;;;;;;;;;;5117108;28;20304;-65
2021/03/14 04:37:00;;;;;;;2.92;2.60;;;;;;;;;;5117519;28;20246;-65
2021/03/14 04:39:27;;;;;;;9.52;2.72;;;;;;;;;;5116834;28;20232;-65
2021/03/14 04:41:54;;;;;;;6.90;3.08;;;;;;;;;;5117032;28;20283;-65
2021/03/14 04:44:21;;;;;;;4.32;3.13;;;;;;;;;;5117056;28;20287;-65
2021/03/14 04:46:49;;;;;;;9.10;5.13;;;;;;;;;;5116723;28;20238;-65
2021/03/14 04:49:15;;;;;;;9.02;3.33;;;;;;;;;;5117713;28;20256;-65
2021/03/14 04:51:44;;;;;;;7.90;4.20;;;;;;;;;;5117518;28;20197;-65
2021/03/14 04:54:12;;;;;;;11.98;5.07;;;;;;;;;;5116437;28;20753;-65
2021/03/14 04:56:40;;;;;;;9.05;3.95;;;;;;;;;;5116752;28;20197;-64
2021/03/14 04:59:08;;;;;;;7.20;3.55;;;;;;;;;;5117159;28;20226;-65
2021/03/14 05:01:37;;;;;;;9.27;4.55;;;;;;;;;;5117183;28;20193;-65
2021/03/14 05:04:05;;;;;;;9.88;4.43;;;;;;;;;;5116778;28;20201;-65
2021/03/14 05:06:32;;;;;;;6.63;4.88;;;;;;;;;;5117398;28;20288;-65
2021/03/14 05:08:59;;;;;;;10.90;5.13;;;;;;;;;;5116529;28;20229;-65
2021/03/14 05:11:26;;;;;;;8.60;5.25;;;;;;;;;;5117710;28;20193;-67
2021/03/14 05:13:53;;;;;;;12.18;5.07;;;;;;;;;;5116594;28;20225;-63
2021/03/14 05:16:20;;;;;;;10.30;5.82;;;;;;;;;;5116914;28;20229;-64
2021/03/14 05:18:47;;;;;;;10.90;5.63;;;;;;;;;;5117513;28;20252;-64
2021/03/14 05:21:15;;;;;;;10.82;6.35;;;;;;;;;;5117370;28;20232;-64
2021/03/14 05:23:42;;;;;;;9.65;5.45;;;;;;;;;;5131480;27;20287;-65
2021/03/14 05:26:11;;;;;;;20.38;6.70;;;;;;;;;;5136428;27;20688;-64
2021/03/14 05:28:38;;;;;;;15.00;6.47;;;;;;;;;;5136950;27;20196;-65
2021/03/14 05:31:26;;;;;;;11.98;7.18;;;;;;;;;;5136129;27;20192;-64
2021/03/14 05:33:52;;;;;;;12.05;6.40;;;;;;;;;;5135725;27;20227;-64
2021/03/14 05:36:20;;;;;;;18.95;8.90;;;;;;;;;;5135318;27;20287;-64
2021/03/14 05:38:47;;;;;;;12.32;7.78;;;;;;;;;;5136488;27;20329;-64
2021/03/14 05:41:14;;;;;;;17.65;8.30;;;;;;;;;;5135507;27;20350;-64
2021/03/14 05:43:40;;;;;;;10.98;6.25;;;;;;;;;;5135661;27;20232;-66
2021/03/14 05:46:08;;;;;;;11.48;6.18;;;;;;;;;;5135003;27;20306;-66
2021/03/14 05:48:35;;;;;;;13.80;6.85;;;;;;;;;;5135212;27;20279;-64
2021/03/14 05:51:02;;;;;;;13.02;6.68;;;;;;;;;;5135610;27;20240;-64
2021/03/14 05:53:30;;;;;;;20.65;6.43;;;;;;;;;;5134082;27;20248;-64
2021/03/14 05:55:57;;;;;;;8.50;6.10;;;;;;;;;;5135437;27;20588;-64
2021/03/14 05:58:24;;;;;;;13.88;8.85;;;;;;;;;;5135790;27;20250;-64
2021/03/14 06:00:51;;;;;;;9.32;6.95;;;;;;;;;;5135704;27;20227;-64
2021/03/14 06:03:18;;;;;;;13.40;7.38;;;;;;;;;;5135816;27;20192;-64
2021/03/14 06:05:45;;;;;;;15.27;6.90;;;;;;;;;;5136030;27;20272;-64
2021/03/14 06:08:12;;;;;;;12.65;8.82;;;;;;;;;;5135598;27;20227;-64
2021/03/14 06:10:39;;;;;;;18.27;7.18;;;;;;;;;;5134663;27;20283;-64
2021/03/14 06:13:06;;;;;;;10.85;6.95;;;;;;;;;;5134909;27;20597;-64
2021/03/14 06:15:33;;;;;;;12.20;5.80;;;;;;;;;;5133812;27;20297;-65
2021/03/14 06:18:01;;;;;;;16.85;7.75;;;;;;;;;;5134457;27;20693;-66
2021/03/14 06:20:34;;;;;;;11.50;7.15;;;;;;;;;;5135132;27;20623;-65
2021/03/14 06:23:05;;;;;;;11.07;7.22;;;;;;;;;;5132940;27;20656;-65
2021/03/14 06:25:32;;;;;;;10.25;7.25;;;;;;;;;;5135377;27;20271;-66
2021/03/14 06:28:00;;;;;;;11.18;6.97;;;;;;;;;;5135620;27;20224;-66
2021/03/14 06:30:27;;;;;;;8.95;5.90;;;;;;;;;;5136441;27;20248;-66
2021/03/14 06:33:12;;;;;;;18.98;6.80;;;;;;;;;;5136378;27;20287;-67
2021/03/14 06:35:40;;;;;;;10.43;5.07;;;;;;;;;;5135107;27;20249;-66
2021/03/14 06:38:20;;;;;;;10.75;5.35;;;;;;;;;;5133679;27;20199;-65
2021/03/14 06:40:47;;;;;;;8.73;5.78;;;;;;;;;;5133357;27;20283;-64
2021/03/14 06:43:15;;;;;;;19.20;6.55;;;;;;;;;;5133838;27;20229;-64
2021/03/14 06:45:43;;;;;;;9.95;6.50;;;;;;;;;;5133564;27;20204;-64
2021/03/14 06:48:10;;;;;;;16.30;6.25;;;;;;;;;;5133188;27;20222;-66
2021/03/14 06:50:39;;;;;;;10.13;5.07;;;;;;;;;;5133833;27;20337;-66
2021/03/14 06:53:07;;;;;;;11.43;6.82;;;;;;;;;;5132689;27;20203;-66
2021/03/14 06:55:34;;;;;;;11.70;6.55;;;;;;;;;;5134231;27;20211;-65
2021/03/14 06:58:16;;;;;;;12.15;5.97;;;;;;;;;;5133966;27;20650;-65
2021/03/14 07:00:45;;;;;;;8.57;4.90;;;;;;;;;;5132558;27;20227;-65
2021/03/14 07:03:23;;;;;;;9.88;5.10;;;;;;;;;;5134908;27;20231;-64
2021/03/14 07:05:50;;;;;;;12.77;6.05;;;;;;;;;;5136414;28;20267;-64
2021/03/14 07:08:26;;;;;;;8.98;5.90;;;;;;;;;;5136334;28;20283;-64
2021/03/14 07:10:53;;;;;;;12.25;6.28;;;;;;;;;;5135797;28;20185;-67
2021/03/14 07:13:20;;;;;;;12.07;6.35;;;;;;;;;;5135032;28;20226;-65
2021/03/14 07:15:51;;;;;;;13.95;6.45;;;;;;;;;;5133830;28;20338;-65
2021/03/14 07:18:18;;;;;;;7.75;6.10;;;;;;;;;;5134190;28;20203;-64
2021/03/14 07:20:45;;;;;;;8.02;6.25;;;;;;;;;;5133756;28;20188;-66
2021/03/14 07:23:13;;;;;;;10.68;6.68;;;;;;;;;;5133193;28;20326;-68
2021/03/14 07:25:41;;;;;;;9.93;6.80;;;;;;;;;;5132305;28;20234;-68
2021/03/14 07:28:08;;;;;;;16.90;6.15;;;;;;;;;;5133077;28;20283;-67
2021/03/14 07:30:35;;;;;;;13.20;6.28;;;;;;;;;;5133709;28;20295;-66
2021/03/14 07:33:03;;;;;;;20.75;6.95;;;;;;;;;;5133429;28;20296;-65
2021/03/14 07:35:29;;;;;;;11.95;7.28;;;;;;;;;;5133329;28;20303;-66
2021/03/14 07:37:57;;;;;;;9.48;7.53;;;;;;;;;;5134055;27;20228;-65
2021/03/14 07:40:24;;;;;;;14.98;8.38;;;;;;;;;;5137611;27;20288;-71
2021/03/14 07:42:55;;;;;;;27.63;8.35;;;;;;;;;;5137896;27;20298;-66
2021/03/14 07:45:22;;;;;;;8.98;7.25;;;;;;;;;;5137438;27;20193;-69
2021/03/14 07:47:50;;;;;;;19.83;7.78;;;;;;;;;;5137398;27;20235;-68
2021/03/14 07:50:19;;;;;;;14.20;8.00;;;;;;;;;;5137639;27;20558;-68
2021/03/14 07:52:46;;;;;;;15.98;7.65;;;;;;;;;;5137755;27;20200;-69
2021/03/14 07:55:14;;;;;;;13.25;7.88;;;;;;;;;;5135790;27;20296;-69
2021/03/14 07:57:44;;;;;;;13.25;7.15;;;;;;;;;;5137153;27;20336;-67
2021/03/14 08:00:26;;;;;;;8.25;6.80;;;;;;;;;;5137573;27;20283;-69
2021/03/14 08:02:53;;;;;;;12.70;8.93;;;;;;;;;;5137157;27;20283;-70
2021/03/14 08:05:41;;;;;;;17.67;8.57;;;;;;;;;;5137532;27;20227;-69
2021/03/14 08:08:09;;;;;;;11.63;9.15;;;;;;;;;;5136973;27;20197;-70
2021/03/14 08:10:39;;;;;;;12.77;8.60;;;;;;;;;;5137098;27;20571;-70
2021/03/14 08:13:07;;;;;;;15.60;8.32;;;;;;;;;;5136752;27;20231;-69
2021/03/14 08:15:35;;;;;;;16.42;8.65;;;;;;;;;;5137340;27;20267;-69
2021/03/14 08:18:02;;;;;;;11.23;7.60;;;;;;;;;;5136698;27;20285;-67
2021/03/14 08:20:36;;;;;;;9.73;8.73;;;;;;;;;;5136860;27;20235;-71
2021/03/14 08:23:05;;;;;;;12.75;9.13;;;;;;;;;;5137264;27;20502;-69
2021/03/14 08:25:36;;;;;;;13.32;9.85;;;;;;;;;;5134849;27;20200;-68
2021/03/14 08:28:23;;;;;;;14.70;7.03;;;;;;;;;;5137026;27;20182;-70
2021/03/14 08:30:50;;;;;;;10.50;8.88;;;;;;;;;;5137136;27;20185;-70
2021/03/14 08:33:44;;;;;;;12.98;9.88;;;;;;;;;;5136673;27;20204;-70
2021/03/14 08:36:13;;;;;;;12.27;7.93;;;;;;;;;;5076912;27;20227;-69
2021/03/14 08:38:47;;;;;;;10.25;8.70;;;;;;;;;;5136063;27;20322;-68
2021/03/14 08:41:27;;;;;;;14.25;9.48;;;;;;;;;;5136930;27;20241;-69
2021/03/14 08:43:56;;;;;;;15.35;9.85;;;;;;;;;;5136800;27;20269;-69
2021/03/14 08:46:42;;;;;;;13.75;9.77;;;;;;;;;;5136514;27;20729;-68
2021/03/14 08:49:10;;;;;;;8.98;7.28;;;;;;;;;;5136224;27;20224;-69
2021/03/14 08:51:37;;;;;;;15.85;8.15;;;;;;;;;;5135763;27;20279;-69
2021/03/14 08:54:04;;;;;;;8.50;7.60;;;;;;;;;;5137035;27;20255;-69
2021/03/14 08:56:31;;;;;;;8.88;8.05;;;;;;;;;;5134397;27;20389;-69
2021/03/14 08:59:06;;;;;;;10.63;8.20;;;;;;;;;;5135827;27;20224;-68
2021/03/14 09:01:33;;;;;;;10.35;7.60;;;;;;;;;;5135887;27;20193;-69
2021/03/14 09:04:11;;;;;;;9.35;8.45;;;;;;;;;;5135911;27;20199;-67
2021/03/14 09:06:38;;;;;;;7.75;6.95;;;;;;;;;;5136798;27;20545;-68
2021/03/14 09:09:05;;;;;;;12.15;8.40;;;;;;;;;;5135730;27;20299;-68
2021/03/14 09:11:36;;;;;;;10.82;7.72;;;;;;;;;;5136444;27;20203;-66
2021/03/14 09:14:17;;;;;;;11.00;7.47;;;;;;;;;;5136213;27;20256;-67
2021/03/14 09:16:44;;;;;;;8.30;7.00;;;;;;;;;;5135896;27;20188;-66
2021/03/14 09:19:12;;;;;;;6.97;6.13;;;;;;;;;;5135688;27;20215;-68
2021/03/14 09:21:48;;;;;;;9.43;6.25;;;;;;;;;;5135969;27;20299;-70
2021/03/14 09:24:25;;;;;;;12.68;7.40;;;;;;;;;;5135693;27;20235;-66
2021/03/14 09:26:55;;;;;;;10.25;8.15;;;;;;;;;;5133173;27;20272;-66
2021/03/14 09:29:32;;;;;;;8.35;7.45;;;;;;;;;;5135025;27;20280;-68
2021/03/14 09:31:59;;;;;;;8.90;7.53;;;;;;;;;;5135667;27;20264;-65
2021/03/14 09:34:27;;;;;;;9.30;7.85;;;;;;;;;;5135843;27;20311;-67
2021/03/14 09:36:54;;;;;;;9.80;8.30;;;;;;;;;;5135004;27;20196;-67
2021/03/14 09:39:24;;;;;;;10.55;9.60;;;;;;;;;;5135447;27;20188;-68
2021/03/14 09:41:51;;;;;;;15.35;9.10;;;;;;;;;;5135819;27;20188;-68
2021/03/14 09:44:18;;;;;;;10.10;8.70;;;;;;;;;;5136009;27;20192;-67
2021/03/14 09:46:58;;;;;;;17.00;10.07;;;;;;;;;;5135979;27;20196;-67
2021/03/14 09:49:25;;;;;;;10.40;9.40;;;;;;;;;;5135253;27;20304;-67
2021/03/14 09:51:53;;;;;;;12.15;9.13;;;;;;;;;;5135469;27;20733;-68
2021/03/14 09:54:20;;;;;;;18.60;9.20;;;;;;;;;;5135633;27;20620;-68
2021/03/14 09:56:50;;;;;;;13.57;9.13;;;;;;;;;;5135954;27;20231;-67
2021/03/14 09:59:21;;;;;;;13.93;9.32;;;;;;;;;;5133284;27;20685;-67
2021/03/14 10:01:49;;;;;;;17.45;10.98;;;;;;;;;;5133798;27;20285;-67
2021/03/14 10:04:15;;;;;;;18.75;11.57;;;;;;;;;;5135936;27;20279;-67
2021/03/14 10:06:43;;;;;;;22.05;12.63;;;;;;;;;;5135702;27;20206;-68
2021/03/14 10:09:21;;;;;;;12.02;10.60;;;;;;;;;;5135511;27;20198;-66
2021/03/14 10:11:48;;;;;;;14.88;11.20;;;;;;;;;;5136095;27;20187;-67
2021/03/14 10:14:16;;;;;;;15.57;12.07;;;;;;;;;;5135150;27;20220;-66
2021/03/14 10:16:43;;;;;;;12.50;11.20;;;;;;;;;;5135263;27;20184;-66
2021/03/14 10:19:09;;;;;;;19.40;13.00;;;;;;;;;;5134924;27;20192;-67
2021/03/14 10:21:43;;;;;;;21.38;14.20;;;;;;;;;;5134996;27;20216;-67
2021/03/14 10:24:17;;;;;;;13.15;11.75;;;;;;;;;;5135460;27;20216;-66
2021/03/14 10:26:51;;;;;;;18.63;13.88;;;;;;;;;;5134260;27;20665;-67
2021/03/14 10:29:18;;;;;;;14.40;11.18;;;;;;;;;;5132350;27;20274;-67
2021/03/14 10:31:45;;;;;;;18.88;12.70;;;;;;;;;;5134263;27;20188;-67
2021/03/14 10:34:11;;;;;;;16.45;11.75;;;;;;;;;;5134693;27;20227;-67
2021/03/14 10:36:38;;;;;;;17.90;12.77;;;;;;;;;;5134479;27;20280;-66
2021/03/14 10:39:06;;;;;;;16.70;12.80;;;;;;;;;;5134672;27;20193;-66
2021/03/14 10:41:39;;;;;;;16.65;14.48;;;;;;;;;;5134600;27;20210;-68
2021/03/14 10:44:07;;;;;;;17.27;14.45;;;;;;;;;;5135371;27;20188;-67
2021/03/14 10:46:35;;;;;;;23.35;16.30;;;;;;;;;;5134693;27;20708;-68
2021/03/14 10:49:03;;;;;;;20.70;15.02;;;;;;;;;;5135044;27;20695;-67
2021/03/14 10:51:32;;;;;;;18.73;12.73;;;;;;;;;;5133919;27;20193;-66
2021/03/14 10:54:08;;;;;;;26.58;16.88;;;;;;;;;;5134563;27;20596;-66
2021/03/14 10:56:36;;;;;;;20.48;14.70;;;;;;;;;;5134726;27;20241;-67
2021/03/14 10:59:03;;;;;;;26.13;14.07;;;;;;;;;;5134555;27;20196;-67
2021/03/14 11:01:36;;;;;;;25.75;16.13;;;;;;;;;;5132179;27;20189;-66
2021/03/14 11:04:04;;;;;;;23.08;14.63;;;;;;;;;;5134140;27;20237;-68
2021/03/14 11:06:30;;;;;;;20.83;14.85;;;;;;;;;;5134460;27;20238;-67
2021/03/14 11:09:01;;;;;;;22.05;14.73;;;;;;;;;;5134495;28;20756;-69
2021/03/14 11:11:37;;;;;;;23.92;14.75;;;;;;;;;;5135338;28;20181;-68
2021/03/14 11:14:18;;;;;;;16.88;14.35;;;;;;;;;;5138332;27;20643;-68
2021/03/14 11:16:46;;;;;;;20.17;13.60;;;;;;;;;;5144691;27;20216;-66
2021/03/14 11:19:13;;;;;;;12.65;11.25;;;;;;;;;;5151625;27;20227;-68
2021/03/14 11:21:39;;;;;;;15.77;12.75;;;;;;;;;;5141938;27;20199;-68
2021/03/14 11:24:07;;;;;;;17.20;13.70;;;;;;;;;;5138489;27;20204;-66
2021/03/14 11:26:33;;;;;;;17.20;12.73;;;;;;;;;;5138073;27;20193;-66
2021/03/14 11:29:00;;;;;;;14.77;13.13;;;;;;;;;;5138733;27;20283;-67
2021/03/14 11:31:27;;;;;;;20.15;12.80;;;;;;;;;;5136233;27;20204;-68
2021/03/14 11:33:55;;;;;;;16.13;11.05;;;;;;;;;;5138234;27;20295;-67
2021/03/14 11:36:21;;;;;;;14.13;11.90;;;;;;;;;;5138828;27;20235;-66
2021/03/14 11:38:50;;;;;;;15.80;11.90;;;;;;;;;;5137976;27;20673;-68
2021/03/14 11:41:23;;;;;;;14.75;10.60;;;;;;;;;;5137899;27;20665;-68
2021/03/14 11:43:50;;;;;;;20.23;12.05;;;;;;;;;;5138829;27;20181;-67
2021/03/14 11:46:17;;;;;;;18.08;12.88;;;;;;;;;;5138455;27;20232;-67
2021/03/14 11:48:43;;;;;;;13.07;11.63;;;;;;;;;;5138404;27;20198;-66
2021/03/14 11:51:11;;;;;;;18.80;12.30;;;;;;;;;;5138092;27;20229;-66
2021/03/14 11:53:38;;;;;;;11.93;10.52;;;;;;;;;;5137703;27;20228;-66
2021/03/14 11:56:05;;;;;;;14.95;10.80;;;;;;;;;;5137939;27;20217;-67
2021/03/14 11:58:31;;;;;;;16.15;10.13;;;;;;;;;;5137523;27;20222;-66
2021/03/14 12:00:58;;;;;;;11.55;10.35;;;;;;;;;;5135219;27;20611;-66
2021/03/14 12:03:25;;;;;;;13.20;10.15;;;;;;;;;;5136764;27;20284;-66
2021/03/14 12:05:52;;;;;;;11.60;9.70;;;;;;;;;;5138212;27;20251;-67
2021/03/14 12:08:19;;;;;;;10.07;7.95;;;;;;;;;;5137480;27;20349;-68
2021/03/14 12:10:46;;;;;;;9.45;7.85;;;;;;;;;;5137906;27;20194;-67
2021/03/14 12:13:13;;;;;;;13.18;8.27;;;;;;;;;;5137270;27;20246;-66
2021/03/14 12:15:39;;;;;;;17.58;9.95;;;;;;;;;;5137249;27;20772;-66
2021/03/14 12:18:06;;;;;;;12.07;8.70;;;;;;;;;;5137031;27;20282;-67
2021/03/14 12:20:33;;;;;;;11.73;9.23;;;;;;;;;;5137140;27;20284;-67
2021/03/14 12:23:00;;;;;;;13.07;9.63;;;;;;;;;;5137328;27;20198;-66
2021/03/14 12:25:27;;;;;;;9.82;7.88;;;;;;;;;;5136292;27;20284;-66
2021/03/14 12:27:54;;;;;;;12.18;8.95;;;;;;;;;;5136870;27;20198;-66
2021/03/14 12:30:21;;;;;;;9.35;7.95;;;;;;;;;;5137205;27;20212;-66
2021/03/14 12:32:48;;;;;;;15.70;8.27;;;;;;;;;;5135448;27;20283;-66
2021/03/14 12:35:15;;;;;;;11.30;8.93;;;;;;;;;;5136677;27;20253;-66
2021/03/14 12:37:41;;;;;;;19.35;8.10;;;;;;;;;;5137353;27;20232;-66
2021/03/14 12:40:09;;;;;;;9.20;8.20;;;;;;;;;;5137103;27;20194;-65
2021/03/14 12:42:36;;;;;;;12.00;7.53;;;;;;;;;;5136769;27;20367;-66
2021/03/14 12:45:04;;;;;;;10.70;7.13;;;;;;;;;;5137434;27;20208;-66
2021/03/14 12:47:30;;;;;;;9.82;7.45;;;;;;;;;;5136751;27;20228;-66
2021/03/14 12:50:00;;;;;;;8.13;7.32;;;;;;;;;;5137201;27;20234;-67
2021/03/14 12:52:27;;;;;;;7.75;5.97;;;;;;;;;;5136357;27;20190;-65
2021/03/14 12:54:54;;;;;;;9.40;6.75;;;;;;;;;;5136596;27;20226;-66
2021/03/14 12:57:21;;;;;;;8.70;6.63;;;;;;;;;;5136722;27;20332;-66
2021/03/14 12:59:48;;;;;;;11.88;7.43;;;;;;;;;;5136935;27;20283;-65
2021/03/14 13:02:15;;;;;;;7.38;6.68;;;;;;;;;;5134496;27;20296;-66
2021/03/14 13:04:42;;;;;;;11.00;6.70;;;;;;;;;;5135779;27;20198;-68
2021/03/14 13:07:09;;;;;;;9.50;6.97;;;;;;;;;;5136547;27;20262;-66
2021/03/14 13:09:35;;;;;;;8.98;6.55;;;;;;;;;;5136868;27;20198;-66
2021/03/14 13:12:06;;;;;;;10.77;6.40;;;;;;;;;;5136198;27;20674;-66
2021/03/14 13:14:33;;;;;;;6.95;5.30;;;;;;;;;;5136213;27;20628;-66
2021/03/14 13:17:01;;;;;;;7.93;4.50;;;;;;;;;;5136170;27;20535;-66
2021/03/14 13:19:27;;;;;;;4.80;4.03;;;;;;;;;;5136555;27;20280;-66
2021/03/14 13:21:55;;;;;;;4.57;4.18;;;;;;;;;;5136439;27;20200;-67
2021/03/14 13:24:21;;;;;;;5.78;3.75;;;;;;;;;;5135873;27;20558;-66
2021/03/14 13:26:48;;;;;;;5.82;3.40;;;;;;;;;;5136242;27;20224;-68
2021/03/14 13:29:15;;;;;;;3.40;3.20;;;;;;;;;;5135962;27;20280;-67
2021/03/14 13:31:42;;;;;;;8.23;5.85;;;;;;;;;;5136270;27;20193;-65
2021/03/14 13:34:09;;;;;;;10.35;7.32;;;;;;;;;;5134054;27;20275;-67
2021/03/14 13:36:36;;;;;;;8.40;7.00;;;;;;;;;;5136373;27;20279;-68
2021/03/14 13:39:03;;;;;;;9.13;8.10;;;;;;;;;;5136128;27;20279;-67
2021/03/14 13:41:30;;;;;;;10.90;8.70;;;;;;;;;;5135788;27;20193;-68
2021/03/14 13:43:57;;;;;;;9.68;7.68;;;;;;;;;;5136036;27;20231;-67
2021/03/14 13:46:24;;;;;;;8.93;7.97;;;;;;;;;;5136288;27;20230;-68
2021/03/14 13:48:50;;;;;;;8.65;7.38;;;;;;;;;;5135975;27;20676;-68
2021/03/14 13:51:18;;;;;;;10.32;6.05;;;;;;;;;;5135496;27;20675;-68
2021/03/14 13:53:45;;;;;;;13.38;7.80;;;;;;;;;;5135402;27;20599;-69
2021/03/14 13:56:12;;;;;;;12.18;8.27;;;;;;;;;;5135457;27;20280;-70
2021/03/14 13:58:39;;;;;;;11.07;7.82;;;;;;;;;;5135095;27;20235;-67
2021/03/14 14:01:08;;;;;;;8.60;7.00;;;;;;;;;;5135429;27;20239;-69
2021/03/14 14:03:36;;;;;;;7.03;5.35;;;;;;;;;;5132778;27;20193;-67
2021/03/14 14:06:03;;;;;;;6.68;5.28;;;;;;;;;;5135139;27;20203;-68
2021/03/14 14:08:31;;;;;;;6.65;5.57;;;;;;;;;;5136448;27;20189;-68
2021/03/14 14:10:58;;;;;;;7.88;5.28;;;;;;;;;;5136687;27;20189;-68
2021/03/14 14:13:25;;;;;;;5.75;4.32;;;;;;;;;;5137189;27;20550;-68
2021/03/14 14:15:56;;;;;;;4.05;3.75;;;;;;;;;;5136233;27;20697;-69
2021/03/14 14:18:23;;;;;;;5.70;4.22;;;;;;;;;;5136617;27;20204;-68
2021/03/14 14:20:50;;;;;;;7.40;5.10;;;;;;;;;;5135904;27;20228;-69
2021/03/14 14:23:16;;;;;;;4.60;2.55;;;;;;;;;;5136057;27;20219;-68
2021/03/14 14:25:44;;;;;;;2.10;2.00;;;;;;;;;;5135113;27;20253;-67
2021/03/14 14:28:11;;;;;;;2.03;1.92;;;;;;;;;;5135959;27;20674;-67
2021/03/14 14:30:38;;;;;;;2.70;2.42;;;;;;;;;;5137387;27;20227;-67
2021/03/14 14:33:05;;;;;;;2.17;2.08;;;;;;;;;;5135720;27;20201;-68
2021/03/14 14:35:32;;;;;;;10.65;4.70;;;;;;;;;;5132292;27;20311;-67
2021/03/14 14:37:58;;;;;;;5.88;3.70;;;;;;;;;;5135134;27;20246;-69
2021/03/14 14:40:25;;;;;;;4.03;3.63;;;;;;;;;;5135005;27;20198;-70